createdAt,value
2019-03-30T00:02:18.155Z,25.85
2019-03-30T00:04:49.338Z,29.63
2019-03-30T00:07:20.452Z,25.25
2019-03-30T00:09:54.457Z,25.92
2019-03-30T00:12:27.757Z,28.30
2019-03-30T00:14:59.790Z,26.02
2019-03-30T00:17:31.394Z,24.60
2019-03-30T00:20:03.265Z,23.40
2019-03-30T00:22:34.288Z,26.55
2019-03-30T00:25:05.250Z,29.77
2019-03-30T00:27:36.108Z,22.90
2019-03-30T00:30:07.830Z,29.63
2019-03-30T00:32:38.646Z,22.13
2019-03-30T00:35:09.403Z,29.52
2019-03-30T00:37:40.136Z,24.77
2019-03-30T00:40:10.911Z,28.52
2019-03-30T00:42:41.605Z,26.85
2019-03-30T00:45:12.762Z,22.80
2019-03-30T00:47:43.486Z,23.42
2019-03-30T00:50:14.292Z,23.27
2019-03-30T00:52:44.960Z,21.87
2019-03-30T00:55:15.695Z,27.22
2019-03-30T00:57:47.345Z,23.40
2019-03-30T01:00:18.229Z,27.22
2019-03-30T01:02:48.986Z,25.00
2019-03-30T01:05:19.624Z,24.02
2019-03-30T01:07:50.372Z,23.32
2019-03-30T01:10:21.129Z,28.05
2019-03-30T01:12:51.892Z,23.22
2019-03-30T01:15:22.513Z,25.10
2019-03-30T01:17:53.263Z,26.55
2019-03-30T01:20:23.898Z,21.73
2019-03-30T01:22:57.325Z,22.87
2019-03-30T01:25:28.039Z,27.87
2019-03-30T01:27:58.752Z,27.55
2019-03-30T01:30:29.399Z,27.32
2019-03-30T01:33:00.096Z,25.12
2019-03-30T01:35:30.742Z,22.45
2019-03-30T01:38:01.463Z,23.47
2019-03-30T01:40:32.136Z,25.23
2019-03-30T01:43:02.832Z,22.67
2019-03-30T01:45:33.603Z,27.35
2019-03-30T01:48:04.403Z,22.70
2019-03-30T01:50:35.139Z,25.50
2019-03-30T01:53:05.830Z,26.60
2019-03-30T01:55:36.526Z,29.48
2019-03-30T01:58:07.226Z,26.17
2019-03-30T02:00:38.368Z,23.67
2019-03-30T02:03:09.078Z,22.73
2019-03-30T02:05:39.729Z,23.35
2019-03-30T02:08:11.536Z,24.80
2019-03-30T02:10:45.441Z,28.17
2019-03-30T02:13:16.177Z,26.75
2019-03-30T02:15:46.846Z,30.82
2019-03-30T02:18:17.535Z,22.55
2019-03-30T02:20:48.940Z,22.32
2019-03-30T02:23:20.718Z,30.80
2019-03-30T02:25:51.375Z,25.35
2019-03-30T02:28:22.080Z,29.35
2019-03-30T02:30:52.744Z,25.43
2019-03-30T02:33:23.428Z,26.75
2019-03-30T02:35:54.087Z,27.42
2019-03-30T02:38:24.762Z,24.12
2019-03-30T02:40:55.504Z,30.45
2019-03-30T02:43:26.242Z,26.60
2019-03-30T02:45:56.876Z,27.32
2019-03-30T02:48:27.568Z,26.60
2019-03-30T02:50:59.492Z,28.07
2019-03-30T02:53:30.146Z,28.17
2019-03-30T02:56:00.782Z,25.57
2019-03-30T02:58:31.455Z,30.50
2019-03-30T03:01:02.101Z,33.08
2019-03-30T03:03:33.341Z,27.93
2019-03-30T03:06:04.396Z,33.85
2019-03-30T03:08:35.099Z,25.95
2019-03-30T03:11:05.758Z,33.28
2019-03-30T03:13:36.481Z,34.75
2019-03-30T03:16:07.222Z,23.50
2019-03-30T03:18:37.951Z,32.42
2019-03-30T03:21:09.039Z,30.35
2019-03-30T03:23:40.016Z,32.23
2019-03-30T03:26:10.802Z,28.92
2019-03-30T03:28:41.512Z,33.08
2019-03-30T03:31:12.222Z,29.72
2019-03-30T03:33:42.954Z,27.02
2019-03-30T03:36:13.587Z,32.35
2019-03-30T03:38:44.274Z,33.20
2019-03-30T03:41:14.913Z,31.42
2019-03-30T03:43:45.588Z,31.57
2019-03-30T03:46:16.606Z,27.45
2019-03-30T03:48:50.315Z,31.00
2019-03-30T03:51:26.062Z,35.03
2019-03-30T03:53:55.898Z,30.97
2019-03-30T03:56:28.500Z,29.45
2019-03-30T03:59:03.220Z,30.43
2019-03-30T04:01:35.786Z,32.23
2019-03-30T04:04:08.584Z,29.23
2019-03-30T04:06:41.434Z,32.95
2019-03-30T04:09:13.706Z,31.42
2019-03-30T04:11:46.414Z,31.95
2019-03-30T04:14:20.392Z,34.30
2019-03-30T04:16:51.109Z,36.53
2019-03-30T04:19:21.792Z,31.17
2019-03-30T04:21:52.472Z,28.92
2019-03-30T04:24:23.158Z,31.05
2019-03-30T04:26:53.811Z,36.85
2019-03-30T04:29:24.494Z,34.83
2019-03-30T04:31:55.147Z,34.67
2019-03-30T04:34:25.899Z,36.90
2019-03-30T04:36:56.641Z,38.45
2019-03-30T04:39:27.331Z,36.10
2019-03-30T04:41:58.009Z,32.55
2019-03-30T04:44:28.699Z,33.92
2019-03-30T04:46:59.366Z,33.05
2019-03-30T04:49:30.068Z,32.78
2019-03-30T04:52:00.777Z,32.90
2019-03-30T04:54:31.613Z,34.95
2019-03-30T04:57:02.398Z,34.73
2019-03-30T04:59:33.086Z,39.60
2019-03-30T05:02:03.771Z,37.15
2019-03-30T05:04:34.475Z,33.78
2019-03-30T05:07:05.076Z,36.80
2019-03-30T05:09:35.863Z,33.50
2019-03-30T05:12:06.469Z,34.33
2019-03-30T05:14:37.235Z,40.23
2019-03-30T05:17:07.870Z,31.07
2019-03-30T05:19:38.645Z,35.35
2019-03-30T05:22:12.826Z,32.00
2019-03-30T05:24:42.806Z,35.52
2019-03-30T05:27:13.511Z,31.80
2019-03-30T05:29:44.164Z,33.63
2019-03-30T05:32:14.811Z,33.88
2019-03-30T05:34:45.502Z,31.80
2019-03-30T05:37:16.359Z,34.30
2019-03-30T05:39:50.317Z,39.55
2019-03-30T05:42:23.770Z,34.85
2019-03-30T05:44:57.656Z,37.50
2019-03-30T05:47:26.903Z,32.50
2019-03-30T05:49:59.928Z,34.78
2019-03-30T05:52:30.584Z,36.17
2019-03-30T05:55:01.315Z,35.98
2019-03-30T05:57:32.060Z,36.88
2019-03-30T06:00:02.831Z,31.55
2019-03-30T06:02:35.820Z,36.60
2019-03-30T06:05:07.154Z,33.90
2019-03-30T06:07:38.250Z,34.63
2019-03-30T06:10:10.065Z,33.00
2019-03-30T06:12:43.464Z,33.78
2019-03-30T06:15:14.126Z,37.08
2019-03-30T06:17:45.077Z,33.92
2019-03-30T06:20:18.787Z,34.05
2019-03-30T06:22:51.209Z,34.10
2019-03-30T06:25:22.168Z,34.65
2019-03-30T06:27:52.854Z,35.03
2019-03-30T06:30:25.052Z,35.15
2019-03-30T06:32:55.738Z,33.98
2019-03-30T06:35:29.850Z,36.40
2019-03-30T06:38:07.506Z,32.25
2019-03-30T06:40:42.122Z,32.55
2019-03-30T06:43:12.887Z,36.80
2019-03-30T06:45:43.566Z,34.83
2019-03-30T06:48:14.386Z,36.48
2019-03-30T06:50:49.874Z,35.05
2019-03-30T06:53:25.008Z,34.48
2019-03-30T06:55:55.706Z,34.78
2019-03-30T06:58:26.396Z,32.35
2019-03-30T07:00:59.370Z,36.90
2019-03-30T07:03:29.728Z,32.75
2019-03-30T07:06:02.710Z,32.25
2019-03-30T07:08:35.557Z,36.45
2019-03-30T07:11:20.208Z,34.23
2019-03-30T07:13:40.588Z,34.65
2019-03-30T07:16:11.401Z,33.28
2019-03-30T07:18:43.913Z,33.73
2019-03-30T07:21:14.601Z,35.48
2019-03-30T07:23:45.316Z,34.08
2019-03-30T07:26:16.007Z,31.20
2019-03-30T07:28:47.278Z,32.20
2019-03-30T07:31:18.217Z,31.50
2019-03-30T07:33:51.720Z,32.20
2019-03-30T07:36:25.176Z,32.60
2019-03-30T07:38:57.978Z,32.42
2019-03-30T07:41:29.189Z,32.50
2019-03-30T07:43:59.911Z,31.55
2019-03-30T07:46:30.653Z,30.97
2019-03-30T07:49:04.443Z,24.65
2019-03-30T07:51:35.572Z,26.25
2019-03-30T07:54:06.360Z,28.17
2019-03-30T07:56:37.348Z,27.77
2019-03-30T07:59:08.105Z,28.20
2019-03-30T08:01:38.832Z,33.13
2019-03-30T08:04:09.713Z,27.40
2019-03-30T08:06:40.444Z,27.27
2019-03-30T08:09:11.732Z,25.55
2019-03-30T08:11:42.415Z,26.52
2019-03-30T08:14:13.135Z,39.30
2019-03-30T08:16:43.922Z,26.57
2019-03-30T08:19:14.599Z,27.45
2019-03-30T08:21:45.331Z,27.32
2019-03-30T08:24:15.997Z,29.63
2019-03-30T08:26:46.721Z,28.12
2019-03-30T08:29:18.199Z,25.57
2019-03-30T08:31:50.149Z,24.72
2019-03-30T08:34:21.995Z,24.50
2019-03-30T08:36:52.678Z,24.27
2019-03-30T08:39:23.385Z,34.45
2019-03-30T08:41:54.045Z,32.15
2019-03-30T08:44:24.718Z,23.57
2019-03-30T08:46:55.467Z,25.00
2019-03-30T08:49:26.168Z,20.25
2019-03-30T08:51:56.904Z,26.77
2019-03-30T08:54:27.610Z,25.43
2019-03-30T08:56:58.517Z,22.82
2019-03-30T08:59:29.277Z,20.82
2019-03-30T09:02:00.179Z,21.35
2019-03-30T09:04:30.983Z,23.18
2019-03-30T09:07:03.271Z,20.68
2019-03-30T09:09:33.999Z,24.20
2019-03-30T09:12:04.803Z,25.02
2019-03-30T09:14:36.591Z,20.20
2019-03-30T09:17:07.258Z,20.90
2019-03-30T09:19:37.938Z,20.72
2019-03-30T09:22:08.655Z,23.07
2019-03-30T09:24:39.344Z,22.98
2019-03-30T09:27:10.014Z,20.82
2019-03-30T09:29:40.752Z,27.50
2019-03-30T09:32:14.770Z,22.90
2019-03-30T09:34:43.847Z,22.17
2019-03-30T09:37:14.566Z,21.33
2019-03-30T09:39:45.369Z,21.30
2019-03-30T09:42:16.130Z,19.02
2019-03-30T09:44:46.859Z,21.25
2019-03-30T09:47:17.659Z,20.45
2019-03-30T09:49:48.440Z,21.80
2019-03-30T09:52:19.271Z,24.12
2019-03-30T09:54:49.942Z,21.75
2019-03-30T09:57:20.877Z,21.77
2019-03-30T09:59:51.568Z,20.88
2019-03-30T10:02:22.261Z,42.60
2019-03-30T10:04:53.044Z,24.32
2019-03-30T10:07:23.825Z,18.30
2019-03-30T10:09:54.511Z,19.85
2019-03-30T10:12:25.142Z,15.53
2019-03-30T10:14:55.838Z,17.50
2019-03-30T10:17:26.545Z,18.15
2019-03-30T10:20:04.111Z,22.20
2019-03-30T10:22:30.164Z,15.98
2019-03-30T10:25:00.930Z,17.55
2019-03-30T10:27:31.549Z,18.15
2019-03-30T10:30:02.282Z,22.02
2019-03-30T10:32:33.002Z,18.57
2019-03-30T10:35:03.663Z,16.97
2019-03-30T10:37:35.324Z,16.70
2019-03-30T10:40:06.774Z,18.20
2019-03-30T10:42:37.506Z,20.55
2019-03-30T10:45:09.958Z,18.40
2019-03-30T10:47:40.816Z,21.37
2019-03-30T10:50:11.633Z,15.25
2019-03-30T10:52:42.282Z,17.37
2019-03-30T10:55:13.934Z,15.93
2019-03-30T10:57:44.684Z,17.75
2019-03-30T11:00:21.330Z,22.07
2019-03-30T11:02:52.058Z,21.55
2019-03-30T11:05:22.822Z,19.30
2019-03-30T11:07:54.564Z,20.17
2019-03-30T11:10:25.297Z,18.70
2019-03-30T11:12:55.979Z,21.45
2019-03-30T11:15:26.650Z,18.32
2019-03-30T11:17:57.342Z,17.17
2019-03-30T11:20:28.070Z,20.32
2019-03-30T11:22:58.768Z,22.20
2019-03-30T11:25:29.694Z,18.12
2019-03-30T11:28:00.389Z,18.30
2019-03-30T11:30:31.163Z,19.67
2019-03-30T11:33:01.938Z,18.48
2019-03-30T11:35:32.566Z,22.35
2019-03-30T11:38:03.274Z,18.85
2019-03-30T11:40:34.035Z,21.52
2019-03-30T11:43:04.686Z,16.07
2019-03-30T11:45:36.930Z,22.30
2019-03-30T11:48:07.802Z,17.07
2019-03-30T11:50:40.184Z,14.65
2019-03-30T11:53:10.919Z,12.78
2019-03-30T11:55:41.662Z,11.40
2019-03-30T11:58:12.655Z,13.58
2019-03-30T12:00:43.383Z,12.07
2019-03-30T12:03:14.218Z,14.63
2019-03-30T12:05:45.493Z,11.65
2019-03-30T12:08:17.314Z,15.88
2019-03-30T12:10:48.782Z,10.08
2019-03-30T12:13:19.475Z,15.83
2019-03-30T12:15:51.589Z,17.52
2019-03-30T12:18:24.520Z,14.63
2019-03-30T12:20:56.596Z,12.00
2019-03-30T12:23:27.268Z,16.42
2019-03-30T12:25:57.949Z,10.63
2019-03-30T12:28:28.610Z,11.22
2019-03-30T12:31:01.934Z,11.60
2019-03-30T12:33:32.840Z,12.05
2019-03-30T12:36:03.546Z,11.90
2019-03-30T12:38:35.064Z,13.80
2019-03-30T12:41:09.623Z,14.05
2019-03-30T12:43:40.512Z,11.65
2019-03-30T12:46:15.880Z,12.75
2019-03-30T12:48:46.998Z,11.28
2019-03-30T12:51:17.964Z,12.30
2019-03-30T12:53:50.818Z,10.72
2019-03-30T12:56:21.883Z,10.78
2019-03-30T12:58:55.556Z,11.15
2019-03-30T13:01:26.979Z,11.12
2019-03-30T13:03:58.978Z,14.40
2019-03-30T13:06:30.307Z,14.47
2019-03-30T13:09:05.457Z,11.95
2019-03-30T13:11:36.265Z,14.63
2019-03-30T13:14:07.091Z,10.75
2019-03-30T13:16:39.317Z,14.98
2019-03-30T13:19:10.565Z,12.88
2019-03-30T13:21:52.299Z,15.95
2019-03-30T13:24:14.025Z,12.68
2019-03-30T13:26:47.639Z,13.88
2019-03-30T13:29:18.676Z,13.43
2019-03-30T13:31:54.736Z,13.15
2019-03-30T13:34:27.811Z,12.65
2019-03-30T13:36:59.265Z,10.90
2019-03-30T13:39:30.665Z,12.33
2019-03-30T13:42:01.798Z,14.23
2019-03-30T13:44:33.407Z,12.00
2019-03-30T13:47:05.258Z,13.28
2019-03-30T13:49:38.771Z,15.18
2019-03-30T13:52:09.615Z,11.70
2019-03-30T13:54:40.426Z,11.60
2019-03-30T13:57:15.445Z,13.53
2019-03-30T13:59:50.097Z,12.07
2019-03-30T14:02:24.640Z,9.60
2019-03-30T14:04:55.874Z,8.58
2019-03-30T14:07:27.512Z,9.45
2019-03-30T14:09:58.853Z,11.38
2019-03-30T14:12:31.185Z,11.57
2019-03-30T14:15:02.324Z,12.63
2019-03-30T14:17:36.311Z,10.32
2019-03-30T14:20:08.168Z,10.78
2019-03-30T14:22:39.458Z,10.68
2019-03-30T14:25:10.584Z,8.80
2019-03-30T14:27:42.453Z,11.65
2019-03-30T14:30:14.437Z,10.35
2019-03-30T14:32:50.056Z,10.18
2019-03-30T14:35:23.126Z,10.58
2019-03-30T14:37:54.338Z,14.47
2019-03-30T14:40:25.548Z,11.63
2019-03-30T14:42:56.726Z,11.50
2019-03-30T14:45:29.515Z,13.08
2019-03-30T14:48:00.544Z,10.88
2019-03-30T14:50:35.962Z,11.18
2019-03-30T14:53:09.840Z,11.57
2019-03-30T14:55:41.046Z,10.38
2019-03-30T14:58:18.963Z,11.22
2019-03-30T15:00:48.393Z,9.43
2019-03-30T15:03:19.371Z,10.45
2019-03-30T15:05:50.453Z,14.47
2019-03-30T15:08:26.056Z,11.33
2019-03-30T15:10:59.456Z,10.58
2019-03-30T15:13:30.490Z,14.70
2019-03-30T15:16:01.484Z,15.23
2019-03-30T15:18:33.839Z,12.93
2019-03-30T15:21:09.477Z,13.70
2019-03-30T15:23:40.589Z,11.43
2019-03-30T15:26:11.752Z,11.40
2019-03-30T15:28:44.401Z,13.98
2019-03-30T15:31:15.469Z,11.78
2019-03-30T15:33:53.559Z,11.45
2019-03-30T15:36:26.464Z,12.80
2019-03-30T15:38:58.246Z,11.90
2019-03-30T15:41:32.219Z,13.93
2019-03-30T15:44:05.057Z,12.60
2019-03-30T15:46:36.819Z,16.32
2019-03-30T15:49:09.804Z,15.63
2019-03-30T15:51:41.870Z,16.05
2019-03-30T15:54:12.847Z,14.13
2019-03-30T15:56:47.655Z,15.30
2019-03-30T15:59:18.778Z,15.98
2019-03-30T16:01:49.767Z,14.78
2019-03-30T16:04:20.685Z,14.00
2019-03-30T16:06:51.675Z,16.45
2019-03-30T16:09:23.226Z,17.15
2019-03-30T16:11:54.134Z,14.55
2019-03-30T16:14:25.258Z,20.82
2019-03-30T16:16:56.115Z,19.45
2019-03-30T16:19:27.139Z,14.73
2019-03-30T16:21:58.374Z,18.35
2019-03-30T16:24:30.191Z,14.55
2019-03-30T16:27:03.378Z,15.90
2019-03-30T16:29:34.507Z,16.35
2019-03-30T16:32:05.510Z,17.48
2019-03-30T16:34:36.536Z,15.98
2019-03-30T16:37:07.739Z,17.40
2019-03-30T16:39:38.800Z,16.02
2019-03-30T16:42:12.321Z,19.30
2019-03-30T16:44:44.081Z,19.05
2019-03-30T16:47:15.035Z,17.75
2019-03-30T16:49:46.082Z,17.62
2019-03-30T16:52:17.563Z,16.30
2019-03-30T16:54:50.653Z,21.30
2019-03-30T16:57:22.683Z,20.55
2019-03-30T16:59:54.067Z,16.40
2019-03-30T17:02:26.454Z,17.27
2019-03-30T17:04:57.441Z,16.35
2019-03-30T17:07:28.407Z,13.68
2019-03-30T17:09:59.241Z,13.40
2019-03-30T17:12:30.163Z,16.42
2019-03-30T17:15:01.091Z,13.78
2019-03-30T17:17:32.325Z,13.85
2019-03-30T17:20:05.105Z,13.22
2019-03-30T17:22:36.106Z,15.93
2019-03-30T17:25:08.195Z,13.05
2019-03-30T17:27:39.275Z,14.78
2019-03-30T17:30:10.698Z,14.43
2019-03-30T17:32:41.787Z,13.08
2019-03-30T17:35:12.513Z,17.45
2019-03-30T17:37:44.609Z,18.42
2019-03-30T17:40:15.659Z,14.45
2019-03-30T17:42:46.625Z,19.00
2019-03-30T17:45:17.855Z,12.85
2019-03-30T17:47:48.838Z,16.27
2019-03-30T17:50:19.964Z,13.72
2019-03-30T17:52:51.404Z,15.93
2019-03-30T17:55:34.104Z,15.80
2019-03-30T17:58:12.962Z,16.12
2019-03-30T18:00:35.653Z,13.40
2019-03-30T18:03:07.461Z,20.60
2019-03-30T18:05:39.956Z,18.80
2019-03-30T18:08:12.075Z,16.30
2019-03-30T18:10:43.035Z,15.48
2019-03-30T18:13:14.575Z,14.45
2019-03-30T18:15:45.370Z,14.47
2019-03-30T18:18:18.316Z,14.63
2019-03-30T18:20:49.051Z,17.73
2019-03-30T18:23:19.890Z,16.42
2019-03-30T18:25:50.641Z,19.00
2019-03-30T18:28:27.256Z,16.12
2019-03-30T18:30:56.122Z,17.20
2019-03-30T18:33:27.173Z,14.05
2019-03-30T18:35:58.584Z,16.97
2019-03-30T18:38:29.944Z,17.32
2019-03-30T18:41:00.819Z,18.98
2019-03-30T18:43:31.958Z,17.30
2019-03-30T18:46:02.987Z,16.95
2019-03-30T18:48:35.722Z,19.48
2019-03-30T18:51:10.148Z,15.38
2019-03-30T18:53:41.336Z,20.37
2019-03-30T18:56:12.342Z,19.15
2019-03-30T18:58:44.686Z,17.32
2019-03-30T19:01:15.471Z,19.42
2019-03-30T19:03:47.041Z,18.98
2019-03-30T19:06:18.231Z,16.97
2019-03-30T19:08:49.205Z,17.00
2019-03-30T19:11:20.274Z,18.80
2019-03-30T19:13:51.640Z,17.45
2019-03-30T19:16:22.661Z,18.87
2019-03-30T19:18:53.980Z,18.60
2019-03-30T19:21:24.912Z,19.20
2019-03-30T19:23:55.840Z,19.15
2019-03-30T19:26:26.728Z,24.32
2019-03-30T19:29:01.605Z,19.90
2019-03-30T19:31:40.376Z,18.52
2019-03-30T19:34:12.034Z,19.87
2019-03-30T19:36:43.099Z,19.05
2019-03-30T19:39:14.282Z,21.85
2019-03-30T19:41:45.632Z,20.90
2019-03-30T19:44:17.028Z,21.17
2019-03-30T19:46:48.952Z,20.57
2019-03-30T19:49:36.636Z,19.37
2019-03-30T19:52:20.633Z,22.32
2019-03-30T19:54:58.169Z,25.40
2019-03-30T19:58:00.617Z,24.20
2019-03-30T20:00:52.490Z,20.60
2019-03-30T20:03:34.384Z,20.27
2019-03-30T20:06:21.435Z,23.92
2019-03-30T20:09:03.246Z,20.85
2019-03-30T20:11:36.910Z,21.70
2019-03-30T20:14:09.266Z,19.23
2019-03-30T20:16:44.545Z,26.07
2019-03-30T20:19:17.421Z,19.48
2019-03-30T20:21:57.299Z,20.25
2019-03-30T20:24:39.149Z,20.62
2019-03-30T20:27:22.971Z,25.17
2019-03-30T20:29:59.151Z,24.95
2019-03-30T20:32:29.861Z,23.92
2019-03-30T20:35:00.675Z,24.43
2019-03-30T20:37:31.560Z,25.08
2019-03-30T20:40:02.424Z,28.75
2019-03-30T20:42:35.536Z,26.73
2019-03-30T20:45:08.066Z,27.95
2019-03-30T20:47:44.342Z,32.80
2019-03-30T20:50:17.034Z,34.15
2019-03-30T20:52:47.777Z,37.55
2019-03-30T20:55:18.506Z,39.60
2019-03-30T20:57:49.210Z,36.95
2019-03-30T21:00:20.370Z,37.70
2019-03-30T21:02:51.221Z,38.38
2019-03-30T21:05:25.035Z,38.63
2019-03-30T21:07:55.872Z,45.10
2019-03-30T21:10:26.856Z,47.45
2019-03-30T21:12:57.540Z,44.40
2019-03-30T21:15:28.492Z,45.55
2019-03-30T21:18:09.084Z,51.45
2019-03-30T21:20:44.543Z,56.23
2019-03-30T21:23:15.333Z,53.35
2019-03-30T21:25:46.060Z,52.45
2019-03-30T21:28:25.121Z,48.08
2019-03-30T21:30:58.671Z,57.10
2019-03-30T21:33:29.499Z,53.28
2019-03-30T21:36:00.335Z,57.58
2019-03-30T21:38:33.391Z,48.83
2019-03-30T21:41:04.831Z,50.60
2019-03-30T21:43:37.381Z,52.67
2019-03-30T21:46:14.038Z,53.95
2019-03-30T21:48:46.802Z,55.23
2019-03-30T21:51:18.002Z,56.80
2019-03-30T21:53:49.990Z,57.50
2019-03-30T21:56:21.611Z,65.17
2019-03-30T21:58:54.033Z,56.35
2019-03-30T22:01:25.873Z,57.80
2019-03-30T22:03:57.046Z,63.83
2019-03-30T22:06:28.399Z,60.17
2019-03-30T22:09:00.652Z,57.70
2019-03-30T22:11:36.158Z,69.55
2019-03-30T22:14:07.926Z,66.95
2019-03-30T22:16:39.309Z,57.58
2019-03-30T22:19:12.525Z,72.87
2019-03-30T22:21:46.475Z,73.55
2019-03-30T22:24:17.921Z,77.78
2019-03-30T22:26:51.903Z,69.70
2019-03-30T22:29:35.715Z,68.87
2019-03-30T22:32:08.943Z,77.72
2019-03-30T22:34:43.628Z,75.45
2019-03-30T22:37:16.655Z,74.97
2019-03-30T22:39:50.591Z,73.75
2019-03-30T22:42:28.070Z,71.47
2019-03-30T22:45:00.505Z,73.80
2019-03-30T22:47:31.876Z,73.75
2019-03-30T22:50:06.511Z,79.32
2019-03-30T22:52:39.157Z,82.15
2019-03-30T22:55:13.145Z,78.67
2019-03-30T22:57:46.277Z,80.60
2019-03-30T23:00:39.621Z,73.40
2019-03-30T23:03:15.874Z,82.22
2019-03-30T23:05:48.985Z,84.35
2019-03-30T23:08:19.750Z,82.22
2019-03-30T23:10:58.251Z,90.55
2019-03-30T23:13:28.998Z,83.95
2019-03-30T23:15:59.862Z,82.85
2019-03-30T23:18:32.960Z,85.77
2019-03-30T23:21:03.721Z,83.70
2019-03-30T23:23:34.379Z,80.15
2019-03-30T23:26:05.111Z,77.35
2019-03-30T23:28:36.088Z,91.60
2019-03-30T23:31:06.856Z,92.42
2019-03-30T23:33:37.612Z,86.42
2019-03-30T23:36:08.503Z,84.37
2019-03-30T23:38:39.447Z,81.45
2019-03-30T23:41:10.130Z,89.92
2019-03-30T23:43:41.338Z,86.67
2019-03-30T23:46:14.742Z,81.70
2019-03-30T23:48:45.571Z,91.10
2019-03-30T23:51:19.465Z,85.10
2019-03-30T23:53:51.262Z,87.10
2019-03-30T23:56:24.962Z,92.35
2019-03-30T23:58:55.838Z,92.65
